Time;durP1;ratioP1;P1;durP2;ratioP2;P2;SDS_P1;SDS_P2;PMS_P1;PMS_P2;Temp;Humidity;BMP_temperature;BMP_pressure;BME280_temperature;BME280_humidity;BME280_pressure;Samples;Min_cycle;Max_cycle;Signal;HPM_P1;HPM_P2
2023/08/11 00:01:21;;;;;;;;;4.75;3.50;;;;;;;;5047611;28;8825;-85
2023/08/11 00:03:48;;;;;;;;;5.60;4.60;;;;;;;;5048400;28;8875;-86
2023/08/11 00:06:16;;;;;;;;;2.60;2.60;;;;;;;;5048037;28;8852;-85
2023/08/11 00:08:43;;;;;;;;;5.20;4.20;;;;;;;;5048677;28;9684;-89
2023/08/11 00:11:12;;;;;;;;;4.75;4.75;;;;;;;;5048582;28;8833;-88
2023/08/11 00:13:40;;;;;;;;;4.50;4.50;;;;;;;;5048840;28;8907;-85
2023/08/11 00:16:10;;;;;;;;;4.25;4.25;;;;;;;;5048760;28;8967;-88
2023/08/11 00:18:37;;;;;;;;;4.25;4.25;;;;;;;;5049183;28;8882;-89
2023/08/11 00:21:04;;;;;;;;;3.75;3.75;;;;;;;;5049255;28;8844;-86
2023/08/11 00:23:31;;;;;;;;;5.00;5.00;;;;;;;;5068852;28;8843;-80
2023/08/11 00:25:58;;;;;;;;;5.00;5.00;;;;;;;;5069541;28;8837;-86
2023/08/11 00:28:26;;;;;;;;;6.00;4.00;;;;;;;;5050344;28;8856;-89
2023/08/11 00:30:54;;;;;;;;;4.25;4.25;;;;;;;;5048133;28;8899;-87
2023/08/11 00:33:23;;;;;;;;;5.00;5.00;;;;;;;;5048519;28;8879;-84
2023/08/11 00:35:50;;;;;;;;;6.00;6.00;;;;;;;;5047962;28;8955;-87
2023/08/11 00:38:17;;;;;;;;;4.25;4.25;;;;;;;;5048283;28;8877;-85
2023/08/11 00:40:44;;;;;;;;;3.75;3.75;;;;;;;;5047992;28;8866;-88
2023/08/11 00:43:12;;;;;;;;;4.25;4.25;;;;;;;;5047864;28;8867;-86
2023/08/11 00:45:39;;;;;;;;;4.50;4.50;;;;;;;;5048495;28;8864;-87
2023/08/11 00:48:07;;;;;;;;;3.00;3.00;;;;;;;;5047970;28;8844;-87
2023/08/11 00:50:36;;;;;;;;;4.25;4.25;;;;;;;;5048178;28;8901;-87
2023/08/11 00:53:04;;;;;;;;;4.00;4.00;;;;;;;;5048250;28;8867;-87
2023/08/11 00:55:32;;;;;;;;;4.00;4.00;;;;;;;;5048532;28;9002;-86
2023/08/11 00:57:59;;;;;;;;;3.75;3.75;;;;;;;;5049802;28;8852;-87
2023/08/11 01:00:28;;;;;;;;;6.50;4.75;;;;;;;;5051606;28;8831;-87
2023/08/11 01:02:55;;;;;;;;;6.00;4.75;;;;;;;;5051798;28;9589;-86
2023/08/11 01:05:22;;;;;;;;;4.75;4.75;;;;;;;;5052264;28;8945;-88
2023/08/11 01:08:03;;;;;;;;;4.50;4.50;;;;;;;;5051843;28;8844;-88
2023/08/11 01:10:36;;;;;;;;;3.75;3.75;;;;;;;;5052423;28;8876;-88
2023/08/11 01:13:09;;;;;;;;;4.75;4.75;;;;;;;;5052548;28;8860;-88
2023/08/11 01:15:40;;;;;;;;;4.00;4.00;;;;;;;;5053344;28;8855;-88
2023/08/11 01:18:08;;;;;;;;;4.25;4.25;;;;;;;;5054390;28;8852;-89
2023/08/11 01:20:36;;;;;;;;;3.00;3.00;;;;;;;;5052520;28;8894;-87
2023/08/11 01:23:07;;;;;;;;;5.00;5.00;;;;;;;;5051947;28;8867;-88
2023/08/11 01:25:36;;;;;;;;;5.50;3.75;;;;;;;;5051931;28;8883;-88
2023/08/11 01:28:04;;;;;;;;;5.00;5.00;;;;;;;;5051643;28;8860;-88
2023/08/11 01:30:34;;;;;;;;;5.50;5.50;;;;;;;;5050561;28;8796;-88
2023/08/11 01:33:02;;;;;;;;;4.00;4.00;;;;;;;;5051882;28;8849;-87
2023/08/11 01:35:29;;;;;;;;;5.25;5.00;;;;;;;;5051769;28;8860;-87
2023/08/11 01:37:57;;;;;;;;;4.25;4.00;;;;;;;;5051166;28;8929;-85
2023/08/11 01:40:24;;;;;;;;;3.00;3.00;;;;;;;;5050877;28;8860;-82
2023/08/11 01:42:53;;;;;;;;;6.50;6.50;;;;;;;;5051167;28;8835;-85
2023/08/11 01:45:21;;;;;;;;;4.00;4.00;;;;;;;;5050251;28;8862;-87
2023/08/11 01:47:48;;;;;;;;;6.25;6.25;;;;;;;;5050929;28;8825;-87
2023/08/11 01:50:16;;;;;;;;;8.25;8.00;;;;;;;;5050397;28;8837;-87
2023/08/11 01:52:46;;;;;;;;;4.00;4.00;;;;;;;;5051095;28;8850;-87
2023/08/11 01:55:13;;;;;;;;;6.00;4.25;;;;;;;;5046623;28;8929;-86
2023/08/11 01:57:41;;;;;;;;;10.25;9.00;;;;;;;;5051105;28;8851;-87
2023/08/11 02:00:13;;;;;;;;;4.75;4.75;;;;;;;;5050237;28;8839;-87
2023/08/11 02:02:40;;;;;;;;;9.00;5.75;;;;;;;;5051196;28;8868;-88
2023/08/11 02:05:09;;;;;;;;;6.50;5.50;;;;;;;;5055195;28;8850;-87
2023/08/11 02:07:36;;;;;;;;;8.00;6.00;;;;;;;;5050743;28;8934;-86
2023/08/11 02:10:06;;;;;;;;;5.75;5.75;;;;;;;;5050090;28;8868;-80
2023/08/11 02:12:33;;;;;;;;;6.00;6.00;;;;;;;;5051125;28;8945;-80
2023/08/11 02:15:01;;;;;;;;;4.50;4.50;;;;;;;;5050925;28;8840;-80
2023/08/11 02:17:31;;;;;;;;;7.25;5.50;;;;;;;;5050000;28;8934;-86
2023/08/11 02:19:58;;;;;;;;;6.00;6.00;;;;;;;;5050801;28;8844;-86
2023/08/11 02:22:25;;;;;;;;;4.75;4.75;;;;;;;;5050327;28;8953;-86
2023/08/11 02:24:53;;;;;;;;;4.50;4.50;;;;;;;;5050548;28;8933;-87
2023/08/11 02:27:20;;;;;;;;;5.00;5.00;;;;;;;;5049856;28;8858;-87
2023/08/11 02:29:49;;;;;;;;;5.00;5.00;;;;;;;;5050472;28;8990;-86
2023/08/11 02:32:19;;;;;;;;;4.75;4.75;;;;;;;;5049172;28;8789;-87
2023/08/11 02:34:48;;;;;;;;;5.25;5.25;;;;;;;;5050685;28;8866;-87
2023/08/11 02:37:15;;;;;;;;;4.00;4.00;;;;;;;;5049923;28;8850;-87
2023/08/11 02:39:42;;;;;;;;;4.25;4.25;;;;;;;;5050550;28;8876;-86
2023/08/11 02:42:12;;;;;;;;;5.00;5.00;;;;;;;;5049697;28;8899;-87
2023/08/11 02:44:39;;;;;;;;;5.50;5.50;;;;;;;;5051322;28;8968;-88
2023/08/11 02:47:07;;;;;;;;;4.75;4.75;;;;;;;;5064931;28;8824;-85
2023/08/11 02:49:35;;;;;;;;;5.75;5.75;;;;;;;;5068545;28;8840;-83
2023/08/11 02:52:03;;;;;;;;;6.25;6.25;;;;;;;;5062153;28;8974;-87
2023/08/11 02:54:30;;;;;;;;;4.75;4.75;;;;;;;;5054278;28;8832;-85
2023/08/11 02:56:58;;;;;;;;;6.00;4.00;;;;;;;;5054674;28;8863;-89
2023/08/11 02:59:25;;;;;;;;;5.50;5.25;;;;;;;;5051273;28;8880;-89
2023/08/11 03:01:52;;;;;;;;;4.75;4.75;;;;;;;;5050180;28;8785;-89
2023/08/11 03:04:19;;;;;;;;;4.75;4.75;;;;;;;;5050616;28;8974;-88
2023/08/11 03:06:47;;;;;;;;;4.00;4.00;;;;;;;;5051388;28;8844;-89
2023/08/11 03:09:16;;;;;;;;;5.25;5.25;;;;;;;;5049603;28;8925;-88
2023/08/11 03:11:43;;;;;;;;;5.25;4.50;;;;;;;;5049875;28;8856;-89
2023/08/11 03:14:11;;;;;;;;;5.00;5.00;;;;;;;;5049173;28;8848;-91
2023/08/11 03:16:38;;;;;;;;;5.50;5.00;;;;;;;;5049462;28;8851;-89
2023/08/11 03:19:05;;;;;;;;;4.50;4.50;;;;;;;;5049703;28;8882;-87
2023/08/11 03:21:32;;;;;;;;;5.00;5.00;;;;;;;;5048335;28;8880;-86
2023/08/11 03:24:00;;;;;;;;;4.50;4.50;;;;;;;;5049134;28;8841;-86
2023/08/11 03:26:29;;;;;;;;;5.50;5.50;;;;;;;;5049030;28;9015;-85
2023/08/11 03:28:56;;;;;;;;;5.00;5.00;;;;;;;;5048496;28;8851;-87
2023/08/11 03:31:23;;;;;;;;;6.00;6.00;;;;;;;;5048775;28;8775;-86
2023/08/11 03:33:50;;;;;;;;;3.75;3.75;;;;;;;;5048965;28;8890;-87
2023/08/11 03:36:17;;;;;;;;;5.25;5.25;;;;;;;;5048620;28;8852;-87
2023/08/11 03:38:45;;;;;;;;;6.00;6.00;;;;;;;;5048664;28;8856;-87
2023/08/11 03:41:12;;;;;;;;;5.00;5.00;;;;;;;;5048347;28;8874;-88
2023/08/11 03:43:40;;;;;;;;;3.25;3.25;;;;;;;;5037570;28;9739;-87
2023/08/11 03:46:08;;;;;;;;;5.50;5.50;;;;;;;;5049301;28;8843;-87
2023/08/11 03:48:35;;;;;;;;;5.25;4.75;;;;;;;;5047806;28;8981;-87
2023/08/11 03:51:03;;;;;;;;;4.75;4.75;;;;;;;;5047805;28;8868;-86
2023/08/11 03:53:31;;;;;;;;;5.00;3.75;;;;;;;;5048316;28;8848;-86
2023/08/11 03:55:58;;;;;;;;;5.00;4.75;;;;;;;;5048088;28;8867;-85
2023/08/11 03:58:25;;;;;;;;;3.75;3.75;;;;;;;;5048360;28;8863;-87
2023/08/11 04:00:55;;;;;;;;;5.00;5.00;;;;;;;;5047581;28;8795;-89
2023/08/11 04:03:23;;;;;;;;;5.00;5.00;;;;;;;;5048126;28;8882;-86
2023/08/11 04:05:50;;;;;;;;;4.50;4.50;;;;;;;;5053552;28;8844;-87
2023/08/11 04:08:18;;;;;;;;;5.25;5.25;;;;;;;;5053321;28;8844;-84
2023/08/11 04:10:45;;;;;;;;;5.00;5.00;;;;;;;;5048195;28;8962;-83
2023/08/11 04:13:12;;;;;;;;;7.50;6.00;;;;;;;;5047252;28;8884;-79
2023/08/11 04:15:40;;;;;;;;;5.75;5.75;;;;;;;;5047905;28;8979;-86
2023/08/11 04:18:10;;;;;;;;;6.75;6.00;;;;;;;;5047773;28;8860;-86
2023/08/11 04:20:37;;;;;;;;;6.00;6.00;;;;;;;;5047852;28;8917;-86
2023/08/11 04:23:05;;;;;;;;;6.00;6.00;;;;;;;;5048909;28;8930;-83
2023/08/11 04:25:32;;;;;;;;;7.50;5.75;;;;;;;;5048331;28;8913;-82
2023/08/11 04:28:01;;;;;;;;;4.75;4.75;;;;;;;;5048437;28;8844;-85
2023/08/11 04:30:29;;;;;;;;;5.25;5.25;;;;;;;;5047562;28;8908;-86
2023/08/11 04:32:57;;;;;;;;;7.25;5.25;;;;;;;;5050693;28;8860;-89
2023/08/11 04:35:26;;;;;;;;;4.75;4.75;;;;;;;;5052892;28;8892;-86
2023/08/11 04:37:53;;;;;;;;;8.75;7.75;;;;;;;;5052265;28;9086;-84
2023/08/11 04:40:21;;;;;;;;;5.25;5.25;;;;;;;;5051364;28;8929;-82
2023/08/11 04:42:48;;;;;;;;;6.75;6.75;;;;;;;;5051256;28;8848;-86
2023/08/11 04:45:15;;;;;;;;;7.50;6.25;;;;;;;;5050906;28;8860;-83
2023/08/11 04:47:43;;;;;;;;;9.00;9.00;;;;;;;;5051403;28;8852;-86
2023/08/11 04:50:11;;;;;;;;;12.00;10.25;;;;;;;;5051088;28;9619;-84
2023/08/11 04:52:40;;;;;;;;;6.50;6.00;;;;;;;;5039430;28;8867;-78
2023/08/11 04:55:08;;;;;;;;;10.00;10.00;;;;;;;;5062724;28;8830;-85
2023/08/11 04:57:35;;;;;;;;;8.75;8.50;;;;;;;;5051721;28;8868;-81
2023/08/11 05:00:03;;;;;;;;;10.00;10.00;;;;;;;;5050982;28;8864;-86
2023/08/11 05:02:30;;;;;;;;;8.50;8.50;;;;;;;;5050844;28;8812;-85
2023/08/11 05:04:57;;;;;;;;;10.25;10.00;;;;;;;;5051213;28;8844;-83
2023/08/11 05:07:25;;;;;;;;;9.50;9.50;;;;;;;;5050797;28;8902;-86
2023/08/11 05:09:53;;;;;;;;;10.00;9.75;;;;;;;;5050387;28;8829;-79
2023/08/11 05:12:20;;;;;;;;;12.00;12.00;;;;;;;;5050463;28;8848;-81
2023/08/11 05:14:48;;;;;;;;;9.00;9.00;;;;;;;;5049864;28;8994;-86
2023/08/11 05:17:15;;;;;;;;;8.75;8.75;;;;;;;;5050315;28;8910;-84
2023/08/11 05:19:42;;;;;;;;;8.00;8.00;;;;;;;;5050379;28;8836;-85
2023/08/11 05:22:11;;;;;;;;;8.75;8.75;;;;;;;;5050617;28;8844;-85
2023/08/11 05:24:38;;;;;;;;;9.50;7.50;;;;;;;;5050489;28;8860;-84
2023/08/11 05:27:08;;;;;;;;;8.75;8.75;;;;;;;;5049894;28;8840;-74
2023/08/11 05:29:35;;;;;;;;;9.00;9.00;;;;;;;;5050970;28;8848;-78
2023/08/11 05:32:03;;;;;;;;;8.25;8.25;;;;;;;;5050406;28;9599;-86
2023/08/11 05:34:30;;;;;;;;;9.75;9.75;;;;;;;;5051015;28;8832;-86
2023/08/11 05:36:57;;;;;;;;;7.75;7.75;;;;;;;;5050437;28;8890;-84
2023/08/11 05:39:25;;;;;;;;;10.00;10.00;;;;;;;;5050434;28;8860;-82
2023/08/11 05:41:53;;;;;;;;;9.75;9.75;;;;;;;;5050030;28;8921;-85
2023/08/11 05:44:21;;;;;;;;;10.25;8.25;;;;;;;;5049380;28;8856;-85
2023/08/11 05:46:48;;;;;;;;;6.50;6.50;;;;;;;;5045038;28;8836;-85
2023/08/11 05:49:16;;;;;;;;;10.25;10.25;;;;;;;;5050292;28;8872;-86
2023/08/11 05:51:43;;;;;;;;;9.25;9.25;;;;;;;;5050283;28;8840;-85
2023/08/11 05:54:10;;;;;;;;;9.50;8.00;;;;;;;;5049926;28;8852;-83
2023/08/11 05:56:37;;;;;;;;;7.50;7.50;;;;;;;;5050221;28;8860;-86
2023/08/11 05:59:05;;;;;;;;;10.25;10.25;;;;;;;;5049794;28;8837;-80
2023/08/11 06:01:34;;;;;;;;;8.25;8.00;;;;;;;;5049926;28;8829;-86
2023/08/11 06:04:01;;;;;;;;;7.00;7.00;;;;;;;;5050884;28;8856;-86
2023/08/11 06:06:28;;;;;;;;;7.50;7.25;;;;;;;;5050282;28;8975;-83
2023/08/11 06:08:55;;;;;;;;;7.40;5.80;;;;;;;;5050864;28;8848;-84
2023/08/11 06:11:22;;;;;;;;;7.40;7.40;;;;;;;;5050556;28;8844;-84
2023/08/11 06:13:50;;;;;;;;;5.60;5.60;;;;;;;;5051020;28;8836;-83
2023/08/11 06:16:17;;;;;;;;;5.00;5.00;;;;;;;;5047837;28;8863;-79
2023/08/11 06:18:46;;;;;;;;;6.60;6.60;;;;;;;;5050114;28;8860;-83
2023/08/11 06:21:13;;;;;;;;;8.20;8.20;;;;;;;;5040014;28;8879;-83
2023/08/11 06:23:40;;;;;;;;;6.80;6.80;;;;;;;;5049112;28;8874;-85
2023/08/11 06:26:07;;;;;;;;;5.00;5.00;;;;;;;;5049630;28;8870;-85
2023/08/11 06:28:35;;;;;;;;;6.80;6.80;;;;;;;;5049902;28;8859;-86
2023/08/11 06:31:02;;;;;;;;;7.20;7.20;;;;;;;;5049627;28;8819;-78
2023/08/11 06:33:29;;;;;;;;;3.60;3.60;;;;;;;;5048730;28;8837;-81
2023/08/11 06:35:58;;;;;;;;;7.20;7.20;;;;;;;;5048703;28;9410;-83
2023/08/11 06:38:25;;;;;;;;;3.60;3.60;;;;;;;;5048253;28;8872;-86
2023/08/11 06:40:52;;;;;;;;;7.00;6.40;;;;;;;;5048449;28;8859;-81
2023/08/11 06:43:19;;;;;;;;;5.80;5.80;;;;;;;;5048209;28;8848;-77
2023/08/11 06:45:46;;;;;;;;;8.00;6.20;;;;;;;;5048367;28;8860;-82
2023/08/11 06:48:14;;;;;;;;;6.00;6.00;;;;;;;;5047879;28;8974;-81
2023/08/11 06:50:41;;;;;;;;;4.00;4.00;;;;;;;;5049112;28;8869;-81
2023/08/11 06:53:09;;;;;;;;;4.40;4.20;;;;;;;;5049815;28;8971;-76
2023/08/11 06:55:37;;;;;;;;;5.80;5.80;;;;;;;;5061156;28;8846;-73
2023/08/11 06:58:05;;;;;;;;;5.00;5.00;;;;;;;;5047755;28;9599;-74
2023/08/11 07:00:32;;;;;;;;;11.00;9.20;;;;;;;;5047604;28;9659;-79
2023/08/11 07:02:59;;;;;;;;;5.60;5.60;;;;;;;;5047886;28;8894;-75
2023/08/11 07:05:27;;;;;;;;;8.40;7.00;;;;;;;;5047971;28;8930;-75
2023/08/11 07:07:54;;;;;;;;;7.40;6.00;;;;;;;;5047764;28;8832;-79
2023/08/11 07:10:22;;;;;;;;;7.20;6.60;;;;;;;;5047774;28;8848;-76
2023/08/11 07:12:50;;;;;;;;;6.00;6.00;;;;;;;;5048056;28;8867;-73
2023/08/11 07:15:17;;;;;;;;;2.60;2.60;;;;;;;;5047479;28;9662;-79
2023/08/11 07:17:44;;;;;;;;;5.80;5.80;;;;;;;;5048115;28;8845;-77
2023/08/11 07:20:12;;;;;;;;;6.20;6.00;;;;;;;;5047903;28;8987;-81
2023/08/11 07:22:39;;;;;;;;;7.80;7.80;;;;;;;;5048547;28;8881;-81
2023/08/11 07:25:07;;;;;;;;;4.00;4.00;;;;;;;;5047796;28;8982;-75
2023/08/11 07:27:37;;;;;;;;;5.40;5.40;;;;;;;;5048303;28;9634;-78
2023/08/11 07:30:05;;;;;;;;;7.20;5.00;;;;;;;;5047189;28;8843;-74
2023/08/11 07:32:33;;;;;;;;;8.80;5.00;;;;;;;;5048184;28;8867;-83
2023/08/11 07:35:00;;;;;;;;;5.20;5.20;;;;;;;;5048163;28;9696;-81
2023/08/11 07:37:27;;;;;;;;;4.80;4.80;;;;;;;;5048118;28;8868;-80
2023/08/11 07:39:54;;;;;;;;;7.00;7.00;;;;;;;;5049090;28;8836;-81
2023/08/11 07:42:21;;;;;;;;;6.80;6.80;;;;;;;;5050074;28;8903;-81
2023/08/11 07:44:50;;;;;;;;;7.00;7.00;;;;;;;;5051337;28;8898;-82
2023/08/11 07:47:17;;;;;;;;;6.80;6.80;;;;;;;;5051295;28;8856;-76
2023/08/11 07:49:44;;;;;;;;;6.80;6.80;;;;;;;;5050870;28;8882;-78
2023/08/11 07:52:11;;;;;;;;;6.20;6.20;;;;;;;;5050045;28;8844;-76
2023/08/11 07:54:39;;;;;;;;;7.00;7.00;;;;;;;;5048344;28;8900;-76
2023/08/11 07:57:06;;;;;;;;;5.60;5.60;;;;;;;;5047512;28;8828;-76
2023/08/11 07:59:33;;;;;;;;;4.60;4.60;;;;;;;;5047292;28;8856;-74
2023/08/11 08:02:03;;;;;;;;;6.80;5.60;;;;;;;;5047058;28;8792;-74
2023/08/11 08:04:31;;;;;;;;;7.20;7.20;;;;;;;;5046965;28;8844;-73
2023/08/11 08:06:58;;;;;;;;;7.60;7.60;;;;;;;;5046941;28;9230;-79
2023/08/11 08:09:25;;;;;;;;;3.20;3.20;;;;;;;;5046980;28;8868;-77
2023/08/11 08:11:52;;;;;;;;;7.20;7.20;;;;;;;;5047338;28;8854;-79
2023/08/11 08:14:20;;;;;;;;;5.40;5.40;;;;;;;;5046563;28;8832;-75
2023/08/11 08:16:47;;;;;;;;;6.40;6.00;;;;;;;;5047889;28;8848;-76
2023/08/11 08:19:17;;;;;;;;;6.60;6.60;;;;;;;;5042904;28;8844;-80
2023/08/11 08:21:46;;;;;;;;;5.80;5.80;;;;;;;;5048108;28;8856;-80
2023/08/11 08:24:14;;;;;;;;;8.80;8.80;;;;;;;;5048641;28;9449;-78
2023/08/11 08:26:43;;;;;;;;;7.60;7.60;;;;;;;;5048850;28;8840;-80
2023/08/11 08:29:12;;;;;;;;;8.60;8.60;;;;;;;;5048939;28;8847;-82
2023/08/11 08:31:40;;;;;;;;;9.20;8.00;;;;;;;;5047259;28;8824;-80
2023/08/11 08:34:07;;;;;;;;;8.80;7.00;;;;;;;;5047265;28;8852;-81
2023/08/11 08:36:35;;;;;;;;;9.80;7.80;;;;;;;;5047482;28;8895;-82
2023/08/11 08:39:03;;;;;;;;;7.00;6.20;;;;;;;;5047024;28;8867;-81
2023/08/11 08:41:31;;;;;;;;;9.40;8.40;;;;;;;;5046507;28;8863;-78
2023/08/11 08:44:00;;;;;;;;;7.80;6.40;;;;;;;;5047144;28;8982;-79
2023/08/11 08:46:29;;;;;;;;;6.60;6.60;;;;;;;;5046287;28;8843;-77
2023/08/11 08:49:05;;;;;;;;;8.80;7.00;;;;;;;;5046953;28;8832;-77
2023/08/11 08:51:33;;;;;;;;;8.40;8.40;;;;;;;;5046856;28;8969;-78
2023/08/11 08:54:02;;;;;;;;;7.60;7.60;;;;;;;;5047588;28;8864;-79
2023/08/11 08:56:29;;;;;;;;;9.80;7.00;;;;;;;;5046676;28;8896;-78
2023/08/11 08:58:56;;;;;;;;;8.60;7.80;;;;;;;;5047191;28;9668;-79
2023/08/11 09:01:24;;;;;;;;;6.60;6.60;;;;;;;;5046226;28;8819;-76
2023/08/11 09:03:51;;;;;;;;;8.00;8.00;;;;;;;;5047595;28;8921;-77
2023/08/11 09:06:18;;;;;;;;;8.20;7.80;;;;;;;;5047006;28;8856;-79
2023/08/11 09:08:46;;;;;;;;;5.80;5.80;;;;;;;;5047441;28;8856;-79
2023/08/11 09:11:14;;;;;;;;;5.20;5.20;;;;;;;;5054061;28;8882;-79
2023/08/11 09:13:44;;;;;;;;;7.00;7.00;;;;;;;;5050719;28;8951;-78
2023/08/11 09:16:12;;;;;;;;;8.60;8.60;;;;;;;;5048717;28;8851;-79
2023/08/11 09:18:40;;;;;;;;;8.00;7.00;;;;;;;;5049838;28;8841;-80
2023/08/11 09:21:08;;;;;;;;;7.80;7.80;;;;;;;;5054698;28;8986;-79
2023/08/11 09:23:35;;;;;;;;;7.00;7.00;;;;;;;;5054408;28;8879;-80
2023/08/11 09:26:02;;;;;;;;;6.20;6.20;;;;;;;;5054782;28;8855;-78
2023/08/11 09:28:31;;;;;;;;;6.80;6.80;;;;;;;;5053605;28;8929;-78
2023/08/11 09:30:58;;;;;;;;;7.00;7.00;;;;;;;;5051150;28;8796;-79
2023/08/11 09:33:26;;;;;;;;;7.40;7.40;;;;;;;;5050564;28;8891;-76
2023/08/11 09:35:54;;;;;;;;;6.80;6.80;;;;;;;;5050595;28;8866;-79
2023/08/11 09:38:21;;;;;;;;;7.00;7.00;;;;;;;;5050008;28;8840;-79
2023/08/11 09:40:50;;;;;;;;;8.00;6.00;;;;;;;;5050024;28;8925;-78
2023/08/11 09:43:18;;;;;;;;;6.80;6.80;;;;;;;;5049845;28;8967;-81
2023/08/11 09:45:47;;;;;;;;;6.20;6.20;;;;;;;;5050327;28;8864;-79
2023/08/11 09:48:14;;;;;;;;;0.80;0.20;;;;;;;;5050283;28;8866;-79
2023/08/11 09:50:42;;;;;;;;;6.20;6.20;;;;;;;;5050852;28;8898;-78
2023/08/11 09:53:11;;;;;;;;;7.40;7.40;;;;;;;;5049648;28;8902;-76
2023/08/11 09:55:42;;;;;;;;;8.00;8.00;;;;;;;;5050331;28;8940;-79
2023/08/11 09:58:10;;;;;;;;;7.60;7.60;;;;;;;;5051224;28;8844;-79
2023/08/11 10:00:38;;;;;;;;;8.00;8.00;;;;;;;;5052005;28;8783;-77
2023/08/11 10:03:10;;;;;;;;;8.20;8.20;;;;;;;;5052186;28;8832;-82
2023/08/11 10:05:43;;;;;;;;;9.00;8.00;;;;;;;;5051498;28;8971;-81
2023/08/11 10:08:15;;;;;;;;;6.40;6.40;;;;;;;;5049912;28;9003;-73
2023/08/11 10:10:45;;;;;;;;;7.40;6.80;;;;;;;;5049541;28;8852;-79
2023/08/11 10:13:15;;;;;;;;;7.60;7.60;;;;;;;;5049187;28;8883;-78
2023/08/11 10:15:43;;;;;;;;;6.20;6.20;;;;;;;;5049358;28;8866;-80
2023/08/11 10:18:12;;;;;;;;;9.00;8.00;;;;;;;;5049531;28;8933;-77
2023/08/11 10:20:40;;;;;;;;;6.60;6.20;;;;;;;;5048855;28;8856;-81
2023/08/11 10:23:07;;;;;;;;;6.80;6.80;;;;;;;;5049328;28;8859;-78
2023/08/11 10:25:35;;;;;;;;;9.40;9.40;;;;;;;;5048437;28;8844;-81
2023/08/11 10:28:07;;;;;;;;;9.00;9.00;;;;;;;;5048980;28;8856;-80
2023/08/11 10:30:34;;;;;;;;;11.40;11.40;;;;;;;;5048223;28;8879;-76
2023/08/11 10:33:05;;;;;;;;;8.20;8.20;;;;;;;;5049027;28;8994;-78
2023/08/11 10:35:47;;;;;;;;;10.00;10.00;;;;;;;;5037593;28;8863;-80
2023/08/11 10:38:23;;;;;;;;;10.20;10.00;;;;;;;;5048810;28;8874;-80
2023/08/11 10:40:50;;;;;;;;;6.20;5.20;;;;;;;;5049243;28;9768;-77
2023/08/11 10:43:18;;;;;;;;;7.20;7.00;;;;;;;;5048539;28;8849;-78
2023/08/11 10:45:46;;;;;;;;;7.80;7.80;;;;;;;;5048839;28;8848;-81
2023/08/11 10:48:13;;;;;;;;;8.80;7.00;;;;;;;;5048589;28;8832;-80
2023/08/11 10:50:42;;;;;;;;;6.00;6.00;;;;;;;;5051110;28;8935;-79
2023/08/11 10:53:19;;;;;;;;;5.00;5.00;;;;;;;;5050806;28;8844;-78
2023/08/11 10:55:59;;;;;;;;;8.60;6.80;;;;;;;;5052196;28;8844;-82
2023/08/11 10:58:27;;;;;;;;;3.60;3.60;;;;;;;;5053119;28;8844;-84
2023/08/11 11:00:54;;;;;;;;;7.20;7.20;;;;;;;;5052477;28;8795;-79
2023/08/11 11:03:22;;;;;;;;;5.80;5.80;;;;;;;;5052270;28;8848;-85
2023/08/11 11:05:50;;;;;;;;;8.20;7.80;;;;;;;;5049709;28;8867;-88
2023/08/11 11:08:18;;;;;;;;;7.60;7.60;;;;;;;;5049521;28;8832;-86
2023/08/11 11:10:45;;;;;;;;;8.00;8.00;;;;;;;;5048796;28;8852;-80
2023/08/11 11:13:12;;;;;;;;;6.40;6.40;;;;;;;;5048009;28;8888;-80
2023/08/11 11:15:39;;;;;;;;;8.00;8.00;;;;;;;;5046155;28;8870;-76
2023/08/11 11:18:07;;;;;;;;;6.40;5.60;;;;;;;;5048330;28;8848;-76
2023/08/11 11:20:34;;;;;;;;;7.00;7.00;;;;;;;;5046993;28;8962;-86
2023/08/11 11:23:04;;;;;;;;;8.00;8.00;;;;;;;;5059914;28;8881;-77
2023/08/11 11:25:31;;;;;;;;;7.00;7.00;;;;;;;;5047665;28;9468;-76
2023/08/11 11:27:58;;;;;;;;;5.40;4.40;;;;;;;;5048070;28;8852;-76
2023/08/11 11:30:26;;;;;;;;;8.20;6.60;;;;;;;;5047238;28;9476;-75
2023/08/11 11:32:54;;;;;;;;;8.80;8.80;;;;;;;;5049739;28;8848;-75
2023/08/11 11:35:21;;;;;;;;;5.80;5.80;;;;;;;;5049527;28;8859;-78
2023/08/11 11:37:48;;;;;;;;;6.60;6.60;;;;;;;;5050712;28;8926;-74
2023/08/11 11:40:17;;;;;;;;;9.20;6.80;;;;;;;;5049517;28;8852;-79
2023/08/11 11:42:46;;;;;;;;;6.40;4.80;;;;;;;;5047760;28;8840;-79
2023/08/11 11:45:14;;;;;;;;;6.20;6.20;;;;;;;;5047992;28;8860;-75
2023/08/11 11:47:42;;;;;;;;;6.00;5.40;;;;;;;;5041555;28;9419;-76
2023/08/11 11:50:10;;;;;;;;;6.20;6.20;;;;;;;;5042548;28;8867;-83
2023/08/11 11:52:37;;;;;;;;;7.00;5.00;;;;;;;;5049438;28;8934;-84
2023/08/11 11:55:06;;;;;;;;;5.00;3.00;;;;;;;;5051087;28;9635;-82
2023/08/11 11:57:34;;;;;;;;;7.00;5.00;;;;;;;;5049995;28;9753;-82
2023/08/11 12:00:07;;;;;;;;;5.00;5.00;;;;;;;;5049314;28;9239;-88
2023/08/11 12:02:35;;;;;;;;;5.00;5.00;;;;;;;;5049044;28;8832;-88
2023/08/11 12:05:02;;;;;;;;;6.40;4.60;;;;;;;;5048534;28;10262;-81
2023/08/11 12:07:31;;;;;;;;;6.40;6.40;;;;;;;;5055381;28;8852;-90
2023/08/11 12:09:58;;;;;;;;;7.40;5.80;;;;;;;;5050532;28;8833;-83
2023/08/11 12:12:26;;;;;;;;;4.00;4.00;;;;;;;;5051144;28;8863;-84
2023/08/11 12:15:00;;;;;;;;;5.00;5.00;;;;;;;;5049979;28;8848;-79
2023/08/11 12:17:31;;;;;;;;;4.60;4.00;;;;;;;;5048877;28;8844;-83
2023/08/11 12:19:58;;;;;;;;;3.00;3.00;;;;;;;;5047706;28;8835;-85
2023/08/11 12:22:25;;;;;;;;;4.00;4.00;;;;;;;;5048807;28;8852;-85
2023/08/11 12:24:52;;;;;;;;;5.00;5.00;;;;;;;;5049470;28;8855;-87
2023/08/11 12:27:19;;;;;;;;;4.20;4.20;;;;;;;;5050190;28;8851;-78
2023/08/11 12:29:47;;;;;;;;;3.00;2.80;;;;;;;;5051224;28;8995;-87
2023/08/11 12:32:16;;;;;;;;;5.00;5.00;;;;;;;;5051585;28;8959;-78
2023/08/11 12:34:45;;;;;;;;;4.60;4.60;;;;;;;;5051766;28;8840;-75
2023/08/11 12:37:14;;;;;;;;;4.80;4.80;;;;;;;;5054980;28;8864;-76
2023/08/11 12:39:41;;;;;;;;;5.00;3.60;;;;;;;;5052596;28;9003;-86
2023/08/11 12:42:09;;;;;;;;;4.80;4.80;;;;;;;;5048584;28;8874;-78
2023/08/11 12:44:38;;;;;;;;;7.20;6.00;;;;;;;;5048191;28;8967;-77
2023/08/11 12:47:09;;;;;;;;;3.40;3.40;;;;;;;;5050056;28;8871;-88
2023/08/11 12:49:37;;;;;;;;;3.80;3.00;;;;;;;;5053999;28;8862;-84
2023/08/11 12:52:04;;;;;;;;;4.80;3.80;;;;;;;;5053159;28;9026;-76
2023/08/11 12:54:33;;;;;;;;;4.80;4.80;;;;;;;;5053550;28;8864;-77
2023/08/11 12:57:00;;;;;;;;;6.60;6.00;;;;;;;;5052853;28;8854;-90
2023/08/11 12:59:30;;;;;;;;;5.40;5.40;;;;;;;;5052128;28;8874;-91
2023/08/11 13:01:57;;;;;;;;;4.00;3.00;;;;;;;;5051349;28;8814;-81
2023/08/11 13:04:25;;;;;;;;;5.40;5.40;;;;;;;;5050416;28;8909;-84
2023/08/11 13:06:53;;;;;;;;;5.40;4.00;;;;;;;;5052400;28;8860;-84
2023/08/11 13:09:20;;;;;;;;;4.00;4.00;;;;;;;;5051210;28;8863;-81
2023/08/11 13:11:47;;;;;;;;;4.20;3.00;;;;;;;;5051702;28;8848;-87
2023/08/11 13:14:15;;;;;;;;;3.00;3.00;;;;;;;;5053208;28;8848;-82
2023/08/11 13:16:42;;;;;;;;;5.00;5.00;;;;;;;;5052117;28;9017;-80
2023/08/11 13:19:09;;;;;;;;;4.00;4.00;;;;;;;;5051211;28;9001;-85
2023/08/11 13:21:37;;;;;;;;;4.80;4.80;;;;;;;;5051668;28;8866;-78
2023/08/11 13:24:07;;;;;;;;;3.40;3.40;;;;;;;;5051189;28;8852;-79
2023/08/11 13:26:34;;;;;;;;;4.00;4.00;;;;;;;;5053651;28;8871;-81
2023/08/11 13:29:01;;;;;;;;;2.60;2.60;;;;;;;;5043730;28;8852;-86
2023/08/11 13:31:29;;;;;;;;;2.80;2.80;;;;;;;;5053910;28;8773;-84
2023/08/11 13:33:56;;;;;;;;;4.00;4.00;;;;;;;;5052214;28;8856;-83
2023/08/11 13:36:23;;;;;;;;;3.60;3.60;;;;;;;;5052368;28;8884;-85
2023/08/11 13:38:51;;;;;;;;;3.00;3.00;;;;;;;;5051751;28;8848;-88
2023/08/11 13:41:19;;;;;;;;;2.20;2.20;;;;;;;;5051270;28;8879;-83
2023/08/11 13:43:47;;;;;;;;;3.80;3.80;;;;;;;;5051981;28;8863;-87
2023/08/11 13:46:14;;;;;;;;;2.80;2.80;;;;;;;;5051861;28;9652;-86
2023/08/11 13:48:41;;;;;;;;;2.80;2.80;;;;;;;;5052176;28;8860;-89
2023/08/11 13:51:09;;;;;;;;;6.20;3.00;;;;;;;;5053325;28;8848;-92
2023/08/11 13:53:36;;;;;;;;;4.20;4.20;;;;;;;;5064422;28;8852;-91
2023/08/11 13:56:03;;;;;;;;;4.00;3.00;;;;;;;;5052322;28;8860;-88
2023/08/11 13:58:33;;;;;;;;;6.00;6.00;;;;;;;;5053858;28;8976;-93
2023/08/11 14:01:00;;;;;;;;;4.00;2.60;;;;;;;;5051677;28;8831;-84
2023/08/11 14:03:27;;;;;;;;;4.00;4.00;;;;;;;;5056642;28;8848;-86
2023/08/11 14:05:54;;;;;;;;;3.80;3.80;;;;;;;;5055870;28;8860;-84
2023/08/11 14:08:21;;;;;;;;;3.40;3.40;;;;;;;;5055283;28;8958;-93
2023/08/11 14:10:51;;;;;;;;;4.00;4.00;;;;;;;;5057117;28;8964;-91
2023/08/11 14:13:20;;;;;;;;;5.20;5.00;;;;;;;;5054561;28;8874;-89
2023/08/11 14:15:49;;;;;;;;;4.40;4.40;;;;;;;;5051607;28;9021;-81
2023/08/11 14:18:16;;;;;;;;;5.00;5.00;;;;;;;;5050921;28;8852;-82
2023/08/11 14:20:44;;;;;;;;;5.00;5.00;;;;;;;;5050943;28;8975;-82
2023/08/11 14:23:11;;;;;;;;;6.40;5.20;;;;;;;;5051716;28;9619;-82
2023/08/11 14:25:39;;;;;;;;;13.60;13.20;;;;;;;;5049514;28;8832;-82
2023/08/11 14:28:07;;;;;;;;;9.20;6.60;;;;;;;;5049633;28;8832;-78
2023/08/11 14:30:36;;;;;;;;;5.20;5.20;;;;;;;;5048778;28;8784;-81
2023/08/11 14:33:04;;;;;;;;;5.20;5.20;;;;;;;;5049137;28;8868;-78
2023/08/11 14:35:31;;;;;;;;;5.20;5.20;;;;;;;;5048842;28;8871;-79
2023/08/11 14:37:59;;;;;;;;;4.00;4.00;;;;;;;;5049981;28;8864;-81
2023/08/11 14:40:26;;;;;;;;;8.00;6.00;;;;;;;;5061327;28;8871;-86
2023/08/11 14:42:53;;;;;;;;;4.80;4.80;;;;;;;;5050907;28;8869;-78
2023/08/11 14:45:21;;;;;;;;;6.00;6.00;;;;;;;;5050648;28;8959;-81
2023/08/11 14:47:50;;;;;;;;;5.00;5.00;;;;;;;;5050955;28;9649;-79
2023/08/11 14:50:19;;;;;;;;;4.00;4.00;;;;;;;;5050316;28;8858;-77
2023/08/11 14:52:46;;;;;;;;;6.00;6.00;;;;;;;;5048868;28;8837;-79
2023/08/11 14:55:15;;;;;;;;;7.00;7.00;;;;;;;;5049193;28;9684;-80
2023/08/11 14:57:42;;;;;;;;;6.00;6.00;;;;;;;;5048875;28;8840;-78
2023/08/11 15:00:11;;;;;;;;;7.20;5.40;;;;;;;;5048017;28;8840;-79